• Join FlightAware (Why Join?)
  • Login
  • US Flag 
02:27AM EDT


 

Airport Tracker/Info


-or-


 

Live Flight TrackerFlight Track Log ✈ AAR307 ✈ 06-May-2013 ✈ RKSI / ICN - ZSYT / YNT

Flight Track Log - Related Links

Times and Time Zones

All times are in EDT time to prevent confusion due to time zone crossing. See the AAR307 flight status page for this flight to view local times or setup timezone preferences in your user account.

Time Position Orientation Groundspeed Altitude Reporting Facility
EDT Latitude Longitude Course Direction KTS MPH feet Rate Location/Type
01:46AM 37.4726 125.1799 271° West  Level Estimated
01:47AM 37.4723 125.0822 270° West  Level Estimated
01:48AM 37.4720 124.9844 270° West  Level Estimated
01:49AM 37.4715 124.8867 270° West  Level Estimated
01:50AM 37.4710 124.7890 270° West  Level Estimated
01:51AM 37.4704 124.6912 270° West  Level Estimated
01:52AM 37.4697 124.5935 270° West  Level Estimated
01:53AM 37.4689 124.4958 269° West  Level Estimated
01:54AM 37.4680 124.3980 269° West  Level Estimated
01:55AM 37.4671 124.3003 269° West  Level Estimated
01:56AM 37.4661 124.2026 269° West  Level Estimated
01:57AM 37.4650 124.1049 269° West  Level Estimated
01:58AM 37.4638 124.0071 269° West  Level Estimated
01:59AM 37.4625 123.9094 269° West  Level Estimated
02:00AM 37.4612 123.8117 269° West  Level Estimated
02:01AM 37.4598 123.7140 269° West  Level Estimated
02:02AM 37.4583 123.6163 269° West  Level Estimated
02:03AM 37.4567 123.5186 269° West  Level Estimated
02:04AM 37.4550 123.4209 269° West  Level Estimated
02:05AM 37.4533 123.3232 269° West  Level Estimated
02:06AM 37.4515 123.2255 269° West  Level Estimated
02:07AM 37.4496 123.1279 269° West  Level Estimated
02:08AM 37.4476 123.0302 269° West  Level Estimated
02:09AM 37.4455 122.9325 269° West  Level Estimated
02:10AM 37.4434 122.8348 268° West  Level Estimated
02:11AM 37.4412 122.7372 268° West  Level Estimated
02:12AM 37.4389 122.6395 268° West  Level Estimated
02:13AM 37.4365 122.5419 268° West  Level Estimated
02:14AM 37.4340 122.4442 268° West  Level Estimated
02:15AM 37.4315 122.3466 268° West  Level Estimated
02:16AM 37.4289 122.2490 268° West  Level Estimated
02:17AM 37.4262 122.1513 268° West  Level Estimated
02:18AM 37.4234 122.0537 268° West  Level Estimated
02:19AM 37.4205 121.9561 268° West  Level Estimated
02:20AM 37.4176 121.8585 268° West  Level Estimated
02:21AM 37.4145 121.7609 268° West  Level Estimated
02:22AM 37.4114 121.6634 268° West  Level Estimated
02:23AM 37.4082 121.5658 268° West  Level Estimated
02:24AM 37.4050 121.4682 268° West  Level Estimated
02:25AM 37.4017 121.3717 268° West  Level Estimated
02:26AM 37.4017 121.3717 218° Southwest  Level Estimated
02:27AM 37.4017 121.3717 218° Southwest  Level Estimated
02:28AM 37.4017 121.3717 218° Southwest  Level Estimated
02:29AM 37.4017 121.3717 218° Southwest  Level Estimated
02:30AM 37.4017 121.3717 218° Southwest  Level Estimated
02:31AM 37.4017 121.3717 218° Southwest  Level Estimated
02:32AM 37.4017 121.3717 218° Southwest  Level Estimated
02:33AM 37.4017 121.3717 218° Southwest  Level Estimated
02:34AM 37.4017 121.3717 218° Southwest  Level Estimated
02:35AM 37.4017 121.3717 218° Southwest  Level Estimated
02:36AM 37.4017 121.3717 218° Southwest  Level Estimated
02:37AM 37.4017 121.3717 218° Southwest  Level Estimated
02:38AM 37.4017 121.3717 218° Southwest  Level Estimated
02:39AM 37.4017 121.3717 218° Southwest  Level Estimated
02:40AM 37.4017 121.3717 218° Southwest  Level Estimated
02:41AM 37.4017 121.3717 218° Southwest  Level Estimated